Taiseimaru — JL6483 — position and weather

sailwx.info

Track history (hours):
 
Tides and Currents Weather Stations Pressure Air Temp Water Temp Dewpoint Dewpoint Depression Visibility Wind Speed Wind Dir Waves Ship Positions

Taiseimaru

Last reported at 2015-Apr-24 21:12 UTC. Time now 2015-Apr-28 18:17 UTC.
Position N 35°47' E 140°57'.

Length 84 m; draft 4.7 m.

Type: Cargo ship. MMSI: 431500568.

Date/timePositionNaut miles runAvg speedWind from/ knotsBaromVisibWave heightAir tempDewpointWater temp
2015-Apr-24 21:12N 35°47' E 140°57'6411.2
2015-Apr-24 15:29N 34°58' E 140°08'7810.8
2015-Apr-24 08:16N 34°34' E 138°38'183 9.3
2015-Apr-23 12:32N 34°00' E 134°60'1010.8
2015-Apr-23 11:33N 34°11' E 134°59'1111.1
2015-Apr-23 10:33N 34°22' E 134°59'1110.7
2015-Apr-23 09:33N 34°32' E 135°02'10 9.8
2015-Apr-23 08:33N 34°38' E 134°52'  
2015-Apr-21 02:13N 34°41' E 134°46'811.7
2015-Apr-21 01:33N 34°38' E 134°54'1312.6
2015-Apr-21 00:33N 34°36' E 135°09'9 6.8
2015-Apr-20 23:11N 34°39' E 135°20'0 0.0
2015-Apr-20 22:23N 34°39' E 135°20'0 0.0
2015-Apr-20 21:29N 34°39' E 135°20'0 0.0
2015-Apr-20 20:29N 34°39' E 135°20'0 0.0
2015-Apr-20 19:29N 34°39' E 135°20'0 0.0
2015-Apr-20 18:29N 34°39' E 135°20'0 0.0
2015-Apr-20 17:29N 34°39' E 135°20'0 0.0
2015-Apr-20 16:29N 34°39' E 135°20'0 0.0
2015-Apr-20 15:29N 34°39' E 135°20'0 0.0
2015-Apr-20 14:29N 34°39' E 135°20'0 0.1
2015-Apr-20 13:29N 34°39' E 135°20'0 0.1
2015-Apr-20 12:29N 34°39' E 135°20'0 0.0
2015-Apr-20 11:29N 34°39' E 135°20'0 0.0
2015-Apr-20 10:29N 34°39' E 135°20'0 0.0
2015-Apr-20 09:29N 34°39' E 135°20'0 0.1
2015-Apr-20 08:29N 34°39' E 135°20'0 0.0
2015-Apr-20 07:27N 34°39' E 135°20'6 6.5
2015-Apr-20 06:33N 34°35' E 135°14'1313.0
2015-Apr-20 05:32N 34°37' E 134°58'  
2015-Apr-17 09:10N 34°41' E 134°38'  
Track history (hours):
 
Tides and Currents Weather Stations Pressure Air Temp Water Temp Dewpoint Dewpoint Depression Visibility Wind Speed Wind Dir Waves Ship Positions

Taiseimaru

Last reported at 2015-Apr-24 21:12 UTC. Time now 2015-Apr-28 18:17 UTC.
Position N 35°47' E 140°57'.

Length 84 m; draft 4.7 m.

Type: Cargo ship. MMSI: 431500568.

Date/timePositionNaut miles runAvg speedWind from/ knotsBaromVisibWave heightAir tempDewpointWater temp
2015-Apr-24 21:12N 35°47' E 140°57'6411.2
2015-Apr-24 15:29N 34°58' E 140°08'7810.8
2015-Apr-24 08:16N 34°34' E 138°38'183 9.3
2015-Apr-23 12:32N 34°00' E 134°60'1010.8
2015-Apr-23 11:33N 34°11' E 134°59'1111.1
2015-Apr-23 10:33N 34°22' E 134°59'1110.7
2015-Apr-23 09:33N 34°32' E 135°02'10 9.8
2015-Apr-23 08:33N 34°38' E 134°52'  
2015-Apr-21 02:13N 34°41' E 134°46'811.7
2015-Apr-21 01:33N 34°38' E 134°54'1312.6
2015-Apr-21 00:33N 34°36' E 135°09'9 6.8
2015-Apr-20 23:11N 34°39' E 135°20'0 0.0
2015-Apr-20 22:23N 34°39' E 135°20'0 0.0
2015-Apr-20 21:29N 34°39' E 135°20'0 0.0
2015-Apr-20 20:29N 34°39' E 135°20'0 0.0
2015-Apr-20 19:29N 34°39' E 135°20'0 0.0
2015-Apr-20 18:29N 34°39' E 135°20'0 0.0
2015-Apr-20 17:29N 34°39' E 135°20'0 0.0
2015-Apr-20 16:29N 34°39' E 135°20'0 0.0
2015-Apr-20 15:29N 34°39' E 135°20'0 0.0
2015-Apr-20 14:29N 34°39' E 135°20'0 0.1
2015-Apr-20 13:29N 34°39' E 135°20'0 0.1
2015-Apr-20 12:29N 34°39' E 135°20'0 0.0
2015-Apr-20 11:29N 34°39' E 135°20'0 0.0
2015-Apr-20 10:29N 34°39' E 135°20'0 0.0
2015-Apr-20 09:29N 34°39' E 135°20'0 0.1
2015-Apr-20 08:29N 34°39' E 135°20'0 0.0
2015-Apr-20 07:27N 34°39' E 135°20'6 6.5
2015-Apr-20 06:33N 34°35' E 135°14'1313.0
2015-Apr-20 05:32N 34°37' E 134°58'  
2015-Apr-17 09:10N 34°41' E 134°38'  

Dump ship's entire track history